sensor_id;sensor_type;location;lat;lon;timestamp;temperature;humidity
14555;DHT22;7364;50.870;4.722;2023-03-31T00:00:26;12.40;99.90
14555;DHT22;7364;50.870;4.722;2023-03-31T00:02:54;12.40;99.90
14555;DHT22;7364;50.870;4.722;2023-03-31T00:05:23;12.40;99.90
14555;DHT22;7364;50.870;4.722;2023-03-31T00:07:53;12.40;99.90
14555;DHT22;7364;50.870;4.722;2023-03-31T00:10:27;12.40;99.90
14555;DHT22;7364;50.870;4.722;2023-03-31T00:12:57;12.40;99.90
14555;DHT22;7364;50.870;4.722;2023-03-31T00:15:24;12.40;99.90
14555;DHT22;7364;50.870;4.722;2023-03-31T00:17:52;12.30;99.90
14555;DHT22;7364;50.870;4.722;2023-03-31T00:20:22;12.40;99.90
14555;DHT22;7364;50.870;4.722;2023-03-31T00:22:49;12.40;99.90
14555;DHT22;7364;50.870;4.722;2023-03-31T00:25:19;12.50;99.90
14555;DHT22;7364;50.870;4.722;2023-03-31T00:27:48;12.40;99.90
14555;DHT22;7364;50.870;4.722;2023-03-31T00:30:17;12.50;99.90
14555;DHT22;7364;50.870;4.722;2023-03-31T00:32:45;12.50;99.90
14555;DHT22;7364;50.870;4.722;2023-03-31T00:35:12;12.60;99.90
14555;DHT22;7364;50.870;4.722;2023-03-31T00:37:39;12.70;99.90
14555;DHT22;7364;50.870;4.722;2023-03-31T00:40:08;12.60;99.90
14555;DHT22;7364;50.870;4.722;2023-03-31T00:42:39;12.70;99.90
14555;DHT22;7364;50.870;4.722;2023-03-31T00:45:27;12.70;99.90
14555;DHT22;7364;50.870;4.722;2023-03-31T00:48:00;12.70;99.90
14555;DHT22;7364;50.870;4.722;2023-03-31T00:50:31;12.60;99.90
14555;DHT22;7364;50.870;4.722;2023-03-31T00:53:04;12.50;99.90
14555;DHT22;7364;50.870;4.722;2023-03-31T00:55:36;12.40;99.90
14555;DHT22;7364;50.870;4.722;2023-03-31T00:58:06;12.30;99.90
14555;DHT22;7364;50.870;4.722;2023-03-31T01:00:38;12.40;99.90
14555;DHT22;7364;50.870;4.722;2023-03-31T01:03:07;12.20;99.90
14555;DHT22;7364;50.870;4.722;2023-03-31T01:05:41;12.10;99.90
14555;DHT22;7364;50.870;4.722;2023-03-31T01:08:11;12.00;99.90
14555;DHT22;7364;50.870;4.722;2023-03-31T01:10:44;12.00;99.90
14555;DHT22;7364;50.870;4.722;2023-03-31T01:13:13;11.90;99.90
14555;DHT22;7364;50.870;4.722;2023-03-31T01:15:43;11.80;99.90
14555;DHT22;7364;50.870;4.722;2023-03-31T01:18:11;11.80;99.90
14555;DHT22;7364;50.870;4.722;2023-03-31T01:20:54;11.80;99.90
14555;DHT22;7364;50.870;4.722;2023-03-31T01:23:46;11.80;99.90
14555;DHT22;7364;50.870;4.722;2023-03-31T01:26:52;11.70;99.90
14555;DHT22;7364;50.870;4.722;2023-03-31T01:29:38;11.70;99.90
14555;DHT22;7364;50.870;4.722;2023-03-31T01:32:47;11.60;99.90
14555;DHT22;7364;50.870;4.722;2023-03-31T01:35:47;11.50;99.90
14555;DHT22;7364;50.870;4.722;2023-03-31T01:41:37;11.50;99.90
14555;DHT22;7364;50.870;4.722;2023-03-31T01:44:16;11.50;99.90
14555;DHT22;7364;50.870;4.722;2023-03-31T01:46:51;11.50;99.90
14555;DHT22;7364;50.870;4.722;2023-03-31T01:49:25;11.50;99.90
14555;DHT22;7364;50.870;4.722;2023-03-31T01:52:01;11.50;99.90
14555;DHT22;7364;50.870;4.722;2023-03-31T01:54:35;11.50;99.90
14555;DHT22;7364;50.870;4.722;2023-03-31T01:57:11;11.40;99.90
14555;DHT22;7364;50.870;4.722;2023-03-31T01:59:45;11.30;99.90
14555;DHT22;7364;50.870;4.722;2023-03-31T02:02:18;11.30;99.90
14555;DHT22;7364;50.870;4.722;2023-03-31T02:04:48;11.30;99.90
14555;DHT22;7364;50.870;4.722;2023-03-31T02:07:20;11.20;99.90
14555;DHT22;7364;50.870;4.722;2023-03-31T02:09:55;11.30;99.90
14555;DHT22;7364;50.870;4.722;2023-03-31T02:12:26;11.30;99.90
14555;DHT22;7364;50.870;4.722;2023-03-31T02:14:56;11.20;99.90
14555;DHT22;7364;50.870;4.722;2023-03-31T02:17:27;11.20;99.90
14555;DHT22;7364;50.870;4.722;2023-03-31T02:19:57;11.20;99.90
14555;DHT22;7364;50.870;4.722;2023-03-31T02:22:33;11.10;99.90
14555;DHT22;7364;50.870;4.722;2023-03-31T02:25:04;11.10;99.90
14555;DHT22;7364;50.870;4.722;2023-03-31T02:27:36;11.10;99.90
14555;DHT22;7364;50.870;4.722;2023-03-31T02:30:06;11.10;99.90
14555;DHT22;7364;50.870;4.722;2023-03-31T02:32:37;11.10;99.90
14555;DHT22;7364;50.870;4.722;2023-03-31T02:35:06;11.10;99.90
14555;DHT22;7364;50.870;4.722;2023-03-31T02:37:34;11.10;99.90
14555;DHT22;7364;50.870;4.722;2023-03-31T02:40:06;11.00;99.90
14555;DHT22;7364;50.870;4.722;2023-03-31T02:42:40;11.00;99.90
14555;DHT22;7364;50.870;4.722;2023-03-31T02:45:39;11.00;99.90
14555;DHT22;7364;50.870;4.722;2023-03-31T02:48:09;11.00;99.90
14555;DHT22;7364;50.870;4.722;2023-03-31T02:50:57;11.00;99.90
14555;DHT22;7364;50.870;4.722;2023-03-31T02:53:34;10.90;99.90
14555;DHT22;7364;50.870;4.722;2023-03-31T02:56:15;10.90;99.90
14555;DHT22;7364;50.870;4.722;2023-03-31T02:59:14;10.90;99.90
14555;DHT22;7364;50.870;4.722;2023-03-31T03:01:57;10.80;99.90
14555;DHT22;7364;50.870;4.722;2023-03-31T03:04:41;10.80;99.90
14555;DHT22;7364;50.870;4.722;2023-03-31T03:07:18;10.80;99.90
14555;DHT22;7364;50.870;4.722;2023-03-31T03:09:57;10.80;99.90
14555;DHT22;7364;50.870;4.722;2023-03-31T03:12:31;10.80;99.90
14555;DHT22;7364;50.870;4.722;2023-03-31T03:15:05;10.80;99.90
14555;DHT22;7364;50.870;4.722;2023-03-31T03:17:36;10.80;99.90
14555;DHT22;7364;50.870;4.722;2023-03-31T03:20:07;10.80;99.90
14555;DHT22;7364;50.870;4.722;2023-03-31T03:22:37;10.80;99.90
14555;DHT22;7364;50.870;4.722;2023-03-31T03:25:06;10.90;99.90
14555;DHT22;7364;50.870;4.722;2023-03-31T03:27:35;10.90;99.90
14555;DHT22;7364;50.870;4.722;2023-03-31T03:30:07;11.00;99.90
14555;DHT22;7364;50.870;4.722;2023-03-31T03:32:35;11.00;99.90
14555;DHT22;7364;50.870;4.722;2023-03-31T03:35:04;10.90;99.90
14555;DHT22;7364;50.870;4.722;2023-03-31T03:37:33;10.90;99.90
14555;DHT22;7364;50.870;4.722;2023-03-31T03:40:00;11.00;99.90
14555;DHT22;7364;50.870;4.722;2023-03-31T03:42:30;11.00;99.90
14555;DHT22;7364;50.870;4.722;2023-03-31T03:45:01;11.00;99.90
14555;DHT22;7364;50.870;4.722;2023-03-31T03:47:31;11.00;99.90
14555;DHT22;7364;50.870;4.722;2023-03-31T03:49:59;11.00;99.90
14555;DHT22;7364;50.870;4.722;2023-03-31T03:52:27;11.00;99.90
14555;DHT22;7364;50.870;4.722;2023-03-31T03:54:54;11.00;99.90
14555;DHT22;7364;50.870;4.722;2023-03-31T03:57:22;11.10;99.90
14555;DHT22;7364;50.870;4.722;2023-03-31T03:59:49;11.10;99.90
14555;DHT22;7364;50.870;4.722;2023-03-31T04:02:17;11.20;99.90
14555;DHT22;7364;50.870;4.722;2023-03-31T04:04:46;11.20;99.90
14555;DHT22;7364;50.870;4.722;2023-03-31T04:07:13;11.20;99.90
14555;DHT22;7364;50.870;4.722;2023-03-31T04:09:41;11.10;99.90
14555;DHT22;7364;50.870;4.722;2023-03-31T04:12:08;11.10;99.90
14555;DHT22;7364;50.870;4.722;2023-03-31T04:14:35;11.10;99.90
14555;DHT22;7364;50.870;4.722;2023-03-31T04:17:02;11.10;99.90
14555;DHT22;7364;50.870;4.722;2023-03-31T04:19:30;11.20;99.90
14555;DHT22;7364;50.870;4.722;2023-03-31T04:21:59;10.80;99.90
14555;DHT22;7364;50.870;4.722;2023-03-31T04:24:27;10.80;99.90
14555;DHT22;7364;50.870;4.722;2023-03-31T04:26:59;10.90;99.90
14555;DHT22;7364;50.870;4.722;2023-03-31T04:29:27;10.90;99.90
14555;DHT22;7364;50.870;4.722;2023-03-31T04:31:58;10.90;99.90
14555;DHT22;7364;50.870;4.722;2023-03-31T04:34:26;11.00;99.90
14555;DHT22;7364;50.870;4.722;2023-03-31T04:37:01;10.90;99.90
14555;DHT22;7364;50.870;4.722;2023-03-31T04:39:29;10.80;99.90
14555;DHT22;7364;50.870;4.722;2023-03-31T04:41:57;10.80;99.90
14555;DHT22;7364;50.870;4.722;2023-03-31T04:44:26;10.90;99.90
14555;DHT22;7364;50.870;4.722;2023-03-31T04:46:54;10.80;99.90
14555;DHT22;7364;50.870;4.722;2023-03-31T04:49:23;10.80;99.90
14555;DHT22;7364;50.870;4.722;2023-03-31T04:51:50;10.80;99.90
14555;DHT22;7364;50.870;4.722;2023-03-31T04:54:19;10.80;99.90
14555;DHT22;7364;50.870;4.722;2023-03-31T04:56:47;10.80;99.90
14555;DHT22;7364;50.870;4.722;2023-03-31T04:59:14;10.80;99.90
14555;DHT22;7364;50.870;4.722;2023-03-31T05:01:41;10.80;99.90
14555;DHT22;7364;50.870;4.722;2023-03-31T05:04:10;10.80;99.90
14555;DHT22;7364;50.870;4.722;2023-03-31T05:06:37;10.80;99.90
14555;DHT22;7364;50.870;4.722;2023-03-31T05:09:05;10.90;99.90
14555;DHT22;7364;50.870;4.722;2023-03-31T05:11:38;10.90;99.90
14555;DHT22;7364;50.870;4.722;2023-03-31T05:14:05;10.90;99.90
14555;DHT22;7364;50.870;4.722;2023-03-31T05:16:33;10.90;99.90
14555;DHT22;7364;50.870;4.722;2023-03-31T05:19:01;10.80;99.90
14555;DHT22;7364;50.870;4.722;2023-03-31T05:21:29;10.90;99.90
14555;DHT22;7364;50.870;4.722;2023-03-31T05:23:56;10.90;99.90
14555;DHT22;7364;50.870;4.722;2023-03-31T05:26:24;10.90;99.90
14555;DHT22;7364;50.870;4.722;2023-03-31T05:28:53;10.90;99.90
14555;DHT22;7364;50.870;4.722;2023-03-31T05:31:21;10.90;99.90
14555;DHT22;7364;50.870;4.722;2023-03-31T05:33:48;10.90;99.90
14555;DHT22;7364;50.870;4.722;2023-03-31T05:36:17;10.90;99.90
14555;DHT22;7364;50.870;4.722;2023-03-31T05:38:44;10.90;99.90
14555;DHT22;7364;50.870;4.722;2023-03-31T05:41:12;10.90;99.90
14555;DHT22;7364;50.870;4.722;2023-03-31T05:43:41;10.90;99.90
14555;DHT22;7364;50.870;4.722;2023-03-31T05:46:12;10.90;99.90
14555;DHT22;7364;50.870;4.722;2023-03-31T05:48:40;10.90;99.90
14555;DHT22;7364;50.870;4.722;2023-03-31T05:51:07;11.00;99.90
14555;DHT22;7364;50.870;4.722;2023-03-31T05:53:35;11.00;99.90
14555;DHT22;7364;50.870;4.722;2023-03-31T05:56:04;11.00;99.90
14555;DHT22;7364;50.870;4.722;2023-03-31T05:58:33;11.00;99.90
14555;DHT22;7364;50.870;4.722;2023-03-31T06:01:03;11.00;99.90
14555;DHT22;7364;50.870;4.722;2023-03-31T06:03:34;11.00;99.90
14555;DHT22;7364;50.870;4.722;2023-03-31T06:06:02;11.10;99.90
14555;DHT22;7364;50.870;4.722;2023-03-31T06:08:31;11.10;99.90
14555;DHT22;7364;50.870;4.722;2023-03-31T06:10:59;11.00;99.90
14555;DHT22;7364;50.870;4.722;2023-03-31T06:13:26;11.00;99.90
14555;DHT22;7364;50.870;4.722;2023-03-31T06:15:54;11.00;99.90
14555;DHT22;7364;50.870;4.722;2023-03-31T06:18:22;11.00;99.90
14555;DHT22;7364;50.870;4.722;2023-03-31T06:20:51;11.00;99.90
14555;DHT22;7364;50.870;4.722;2023-03-31T06:23:19;11.00;99.90
14555;DHT22;7364;50.870;4.722;2023-03-31T06:25:47;11.10;99.90
14555;DHT22;7364;50.870;4.722;2023-03-31T06:28:17;11.10;99.90
14555;DHT22;7364;50.870;4.722;2023-03-31T06:30:44;11.10;99.90
14555;DHT22;7364;50.870;4.722;2023-03-31T06:33:12;11.20;99.90
14555;DHT22;7364;50.870;4.722;2023-03-31T06:35:40;11.20;99.90
14555;DHT22;7364;50.870;4.722;2023-03-31T06:38:09;11.20;99.90
14555;DHT22;7364;50.870;4.722;2023-03-31T06:40:36;11.20;99.90
14555;DHT22;7364;50.870;4.722;2023-03-31T06:43:03;11.20;99.90
14555;DHT22;7364;50.870;4.722;2023-03-31T06:45:31;11.30;99.90
14555;DHT22;7364;50.870;4.722;2023-03-31T06:47:58;11.30;99.90
14555;DHT22;7364;50.870;4.722;2023-03-31T06:50:26;11.40;99.90
14555;DHT22;7364;50.870;4.722;2023-03-31T06:52:53;11.50;99.90
14555;DHT22;7364;50.870;4.722;2023-03-31T06:55:22;11.50;99.90
14555;DHT22;7364;50.870;4.722;2023-03-31T06:57:50;11.60;99.90
14555;DHT22;7364;50.870;4.722;2023-03-31T07:00:18;11.70;99.90
14555;DHT22;7364;50.870;4.722;2023-03-31T07:02:45;11.70;99.90
14555;DHT22;7364;50.870;4.722;2023-03-31T07:05:13;11.80;99.90
14555;DHT22;7364;50.870;4.722;2023-03-31T07:07:40;12.00;99.90
14555;DHT22;7364;50.870;4.722;2023-03-31T07:10:08;12.10;99.90
14555;DHT22;7364;50.870;4.722;2023-03-31T07:12:37;12.20;99.90
14555;DHT22;7364;50.870;4.722;2023-03-31T07:15:06;12.20;99.90
14555;DHT22;7364;50.870;4.722;2023-03-31T07:17:34;12.30;99.90
14555;DHT22;7364;50.870;4.722;2023-03-31T07:20:02;12.40;99.90
14555;DHT22;7364;50.870;4.722;2023-03-31T07:22:33;12.30;99.90
14555;DHT22;7364;50.870;4.722;2023-03-31T07:25:01;12.40;99.90
14555;DHT22;7364;50.870;4.722;2023-03-31T07:27:29;12.60;99.90
14555;DHT22;7364;50.870;4.722;2023-03-31T07:29:58;12.60;99.90
14555;DHT22;7364;50.870;4.722;2023-03-31T07:32:26;12.60;99.90
14555;DHT22;7364;50.870;4.722;2023-03-31T07:34:54;12.60;99.90
14555;DHT22;7364;50.870;4.722;2023-03-31T07:37:22;12.70;99.90
14555;DHT22;7364;50.870;4.722;2023-03-31T07:39:49;12.70;99.90
14555;DHT22;7364;50.870;4.722;2023-03-31T07:42:17;12.80;99.90
14555;DHT22;7364;50.870;4.722;2023-03-31T07:44:44;12.80;99.90
14555;DHT22;7364;50.870;4.722;2023-03-31T07:47:13;12.90;99.90
14555;DHT22;7364;50.870;4.722;2023-03-31T07:49:41;12.90;99.90
14555;DHT22;7364;50.870;4.722;2023-03-31T07:52:08;13.10;99.90
14555;DHT22;7364;50.870;4.722;2023-03-31T07:54:36;13.00;99.90
14555;DHT22;7364;50.870;4.722;2023-03-31T07:57:04;13.20;99.90
14555;DHT22;7364;50.870;4.722;2023-03-31T07:59:33;13.20;99.90
14555;DHT22;7364;50.870;4.722;2023-03-31T08:02:01;13.10;99.90
14555;DHT22;7364;50.870;4.722;2023-03-31T08:04:31;12.90;99.90
14555;DHT22;7364;50.870;4.722;2023-03-31T08:06:59;12.90;99.90
14555;DHT22;7364;50.870;4.722;2023-03-31T08:09:26;13.00;99.90
14555;DHT22;7364;50.870;4.722;2023-03-31T08:11:56;13.20;99.90
14555;DHT22;7364;50.870;4.722;2023-03-31T08:14:23;13.20;99.90
14555;DHT22;7364;50.870;4.722;2023-03-31T08:16:51;13.20;99.90
14555;DHT22;7364;50.870;4.722;2023-03-31T08:19:20;13.30;99.90
14555;DHT22;7364;50.870;4.722;2023-03-31T08:21:49;13.30;99.90
14555;DHT22;7364;50.870;4.722;2023-03-31T08:24:17;13.10;99.90
14555;DHT22;7364;50.870;4.722;2023-03-31T08:26:45;13.00;99.90
14555;DHT22;7364;50.870;4.722;2023-03-31T08:29:13;13.10;99.90
14555;DHT22;7364;50.870;4.722;2023-03-31T08:31:40;13.20;99.90
14555;DHT22;7364;50.870;4.722;2023-03-31T08:34:08;13.30;99.90
14555;DHT22;7364;50.870;4.722;2023-03-31T08:36:36;13.20;99.90
14555;DHT22;7364;50.870;4.722;2023-03-31T08:39:05;13.20;99.90
14555;DHT22;7364;50.870;4.722;2023-03-31T08:41:40;13.30;99.90
14555;DHT22;7364;50.870;4.722;2023-03-31T08:44:15;13.20;99.90
14555;DHT22;7364;50.870;4.722;2023-03-31T08:46:47;13.10;99.90
14555;DHT22;7364;50.870;4.722;2023-03-31T08:49:17;13.10;99.90
14555;DHT22;7364;50.870;4.722;2023-03-31T08:51:49;13.10;99.90
14555;DHT22;7364;50.870;4.722;2023-03-31T08:54:28;13.20;99.90
14555;DHT22;7364;50.870;4.722;2023-03-31T08:56:57;13.30;99.90
14555;DHT22;7364;50.870;4.722;2023-03-31T08:59:27;13.30;99.90
14555;DHT22;7364;50.870;4.722;2023-03-31T09:02:01;13.40;99.90
14555;DHT22;7364;50.870;4.722;2023-03-31T09:05:02;13.20;99.90
14555;DHT22;7364;50.870;4.722;2023-03-31T09:07:41;13.00;99.90
14555;DHT22;7364;50.870;4.722;2023-03-31T09:10:24;12.90;99.90
14555;DHT22;7364;50.870;4.722;2023-03-31T09:13:04;12.90;99.90
14555;DHT22;7364;50.870;4.722;2023-03-31T09:15:39;13.00;99.90
14555;DHT22;7364;50.870;4.722;2023-03-31T09:18:21;13.10;99.90
14555;DHT22;7364;50.870;4.722;2023-03-31T09:21:05;13.30;99.90
14555;DHT22;7364;50.870;4.722;2023-03-31T09:23:37;13.20;99.90
14555;DHT22;7364;50.870;4.722;2023-03-31T09:26:16;13.20;99.90
14555;DHT22;7364;50.870;4.722;2023-03-31T09:28:48;13.30;99.90
14555;DHT22;7364;50.870;4.722;2023-03-31T09:31:18;13.20;99.90
14555;DHT22;7364;50.870;4.722;2023-03-31T09:33:47;13.10;99.90
14555;DHT22;7364;50.870;4.722;2023-03-31T09:36:19;13.10;99.90
14555;DHT22;7364;50.870;4.722;2023-03-31T09:38:49;13.10;99.90
14555;DHT22;7364;50.870;4.722;2023-03-31T09:41:19;13.00;99.90
14555;DHT22;7364;50.870;4.722;2023-03-31T09:43:47;13.10;99.90
14555;DHT22;7364;50.870;4.722;2023-03-31T09:46:23;13.30;99.90
14555;DHT22;7364;50.870;4.722;2023-03-31T09:48:57;13.60;99.90
14555;DHT22;7364;50.870;4.722;2023-03-31T09:51:33;13.70;99.90
14555;DHT22;7364;50.870;4.722;2023-03-31T09:54:09;14.00;99.90
14555;DHT22;7364;50.870;4.722;2023-03-31T09:56:49;14.20;99.90
14555;DHT22;7364;50.870;4.722;2023-03-31T09:59:19;14.50;99.90
14555;DHT22;7364;50.870;4.722;2023-03-31T10:01:51;14.60;99.90
14555;DHT22;7364;50.870;4.722;2023-03-31T10:04:22;14.60;99.90
14555;DHT22;7364;50.870;4.722;2023-03-31T10:06:50;14.70;99.90
14555;DHT22;7364;50.870;4.722;2023-03-31T10:09:20;14.80;99.90
14555;DHT22;7364;50.870;4.722;2023-03-31T10:11:57;15.00;99.90
14555;DHT22;7364;50.870;4.722;2023-03-31T10:14:32;14.80;99.90
14555;DHT22;7364;50.870;4.722;2023-03-31T10:17:03;14.90;99.90
14555;DHT22;7364;50.870;4.722;2023-03-31T10:19:33;14.70;99.90
14555;DHT22;7364;50.870;4.722;2023-03-31T10:22:04;14.50;99.90
14555;DHT22;7364;50.870;4.722;2023-03-31T10:24:37;14.30;99.90
14555;DHT22;7364;50.870;4.722;2023-03-31T10:27:17;14.20;99.90
14555;DHT22;7364;50.870;4.722;2023-03-31T10:29:46;14.50;99.90
14555;DHT22;7364;50.870;4.722;2023-03-31T10:32:20;14.70;99.90
14555;DHT22;7364;50.870;4.722;2023-03-31T10:34:49;14.40;99.90
14555;DHT22;7364;50.870;4.722;2023-03-31T10:37:20;14.50;99.90
14555;DHT22;7364;50.870;4.722;2023-03-31T10:39:56;14.60;99.90
14555;DHT22;7364;50.870;4.722;2023-03-31T10:42:27;14.80;99.90
14555;DHT22;7364;50.870;4.722;2023-03-31T10:45:11;14.90;99.90
14555;DHT22;7364;50.870;4.722;2023-03-31T10:47:39;15.10;99.90
14555;DHT22;7364;50.870;4.722;2023-03-31T10:50:13;14.90;99.90
14555;DHT22;7364;50.870;4.722;2023-03-31T10:52:44;15.00;99.90
14555;DHT22;7364;50.870;4.722;2023-03-31T10:55:13;14.90;99.90
14555;DHT22;7364;50.870;4.722;2023-03-31T10:57:54;14.80;99.90
14555;DHT22;7364;50.870;4.722;2023-03-31T11:00:28;14.80;99.90
14555;DHT22;7364;50.870;4.722;2023-03-31T11:06:02;14.90;99.90
14555;DHT22;7364;50.870;4.722;2023-03-31T11:08:43;14.60;99.90
14555;DHT22;7364;50.870;4.722;2023-03-31T11:11:21;14.50;99.90
14555;DHT22;7364;50.870;4.722;2023-03-31T11:13:59;14.50;99.90
14555;DHT22;7364;50.870;4.722;2023-03-31T11:16:32;14.30;99.90
14555;DHT22;7364;50.870;4.722;2023-03-31T11:19:10;14.40;99.90
14555;DHT22;7364;50.870;4.722;2023-03-31T11:21:51;14.30;99.90
14555;DHT22;7364;50.870;4.722;2023-03-31T11:24:31;14.10;99.90
14555;DHT22;7364;50.870;4.722;2023-03-31T11:27:13;13.80;99.90
14555;DHT22;7364;50.870;4.722;2023-03-31T11:29:52;13.70;99.90
14555;DHT22;7364;50.870;4.722;2023-03-31T11:32:41;13.80;99.90
14555;DHT22;7364;50.870;4.722;2023-03-31T11:35:37;14.00;99.90
14555;DHT22;7364;50.870;4.722;2023-03-31T11:38:37;14.00;99.90
14555;DHT22;7364;50.870;4.722;2023-03-31T11:41:12;14.10;99.90
14555;DHT22;7364;50.870;4.722;2023-03-31T11:43:44;14.30;99.90
14555;DHT22;7364;50.870;4.722;2023-03-31T11:46:19;14.30;99.90
14555;DHT22;7364;50.870;4.722;2023-03-31T11:48:51;14.40;99.90
14555;DHT22;7364;50.870;4.722;2023-03-31T11:51:25;14.70;99.90
14555;DHT22;7364;50.870;4.722;2023-03-31T11:53:57;14.90;99.90
14555;DHT22;7364;50.870;4.722;2023-03-31T11:56:31;14.90;99.90
14555;DHT22;7364;50.870;4.722;2023-03-31T11:58:59;15.00;99.90
14555;DHT22;7364;50.870;4.722;2023-03-31T12:01:37;15.30;99.90
14555;DHT22;7364;50.870;4.722;2023-03-31T12:04:16;15.40;99.90
14555;DHT22;7364;50.870;4.722;2023-03-31T12:06:51;15.50;99.90
14555;DHT22;7364;50.870;4.722;2023-03-31T12:09:28;15.70;99.90
14555;DHT22;7364;50.870;4.722;2023-03-31T12:12:02;16.10;99.90
14555;DHT22;7364;50.870;4.722;2023-03-31T12:14:44;15.90;99.90
14555;DHT22;7364;50.870;4.722;2023-03-31T12:17:38;15.90;99.90
14555;DHT22;7364;50.870;4.722;2023-03-31T12:20:16;16.00;99.90
14555;DHT22;7364;50.870;4.722;2023-03-31T12:22:46;15.70;99.90
14555;DHT22;7364;50.870;4.722;2023-03-31T12:25:18;15.60;99.90
14555;DHT22;7364;50.870;4.722;2023-03-31T12:27:48;15.50;99.90
14555;DHT22;7364;50.870;4.722;2023-03-31T12:30:21;15.10;99.90
14555;DHT22;7364;50.870;4.722;2023-03-31T12:32:55;14.80;99.90
14555;DHT22;7364;50.870;4.722;2023-03-31T12:35:27;14.50;99.90
14555;DHT22;7364;50.870;4.722;2023-03-31T12:38:07;14.20;99.90
14555;DHT22;7364;50.870;4.722;2023-03-31T12:40:48;13.90;99.90
14555;DHT22;7364;50.870;4.722;2023-03-31T12:46:35;13.80;99.90
14555;DHT22;7364;50.870;4.722;2023-03-31T12:49:19;13.60;99.90
14555;DHT22;7364;50.870;4.722;2023-03-31T12:52:01;13.70;99.90
14555;DHT22;7364;50.870;4.722;2023-03-31T12:57:46;13.80;99.90
14555;DHT22;7364;50.870;4.722;2023-03-31T13:00:23;13.90;99.90
14555;DHT22;7364;50.870;4.722;2023-03-31T13:06:00;13.80;99.90
14555;DHT22;7364;50.870;4.722;2023-03-31T13:08:53;13.60;99.90
14555;DHT22;7364;50.870;4.722;2023-03-31T13:11:22;13.70;99.90
14555;DHT22;7364;50.870;4.722;2023-03-31T13:14:03;13.70;99.90
14555;DHT22;7364;50.870;4.722;2023-03-31T13:16:33;13.60;99.90
14555;DHT22;7364;50.870;4.722;2023-03-31T13:19:02;13.60;99.90
14555;DHT22;7364;50.870;4.722;2023-03-31T13:21:31;13.80;99.90
14555;DHT22;7364;50.870;4.722;2023-03-31T13:24:20;14.00;99.90
14555;DHT22;7364;50.870;4.722;2023-03-31T13:26:52;13.90;99.90
14555;DHT22;7364;50.870;4.722;2023-03-31T13:29:23;14.00;99.90
14555;DHT22;7364;50.870;4.722;2023-03-31T13:32:21;14.10;99.90
14555;DHT22;7364;50.870;4.722;2023-03-31T13:34:56;13.90;99.90
14555;DHT22;7364;50.870;4.722;2023-03-31T13:43:44;13.40;99.90
14555;DHT22;7364;50.870;4.722;2023-03-31T13:46:29;13.40;99.90
14555;DHT22;7364;50.870;4.722;2023-03-31T13:49:07;13.40;99.90
14555;DHT22;7364;50.870;4.722;2023-03-31T13:51:45;13.40;99.90
14555;DHT22;7364;50.870;4.722;2023-03-31T13:54:50;13.60;99.90
14555;DHT22;7364;50.870;4.722;2023-03-31T13:57:50;13.80;99.90
14555;DHT22;7364;50.870;4.722;2023-03-31T14:00:37;13.90;99.90
14555;DHT22;7364;50.870;4.722;2023-03-31T14:03:28;14.00;99.90
14555;DHT22;7364;50.870;4.722;2023-03-31T14:06:05;13.90;99.90
14555;DHT22;7364;50.870;4.722;2023-03-31T14:08:45;13.70;99.90
14555;DHT22;7364;50.870;4.722;2023-03-31T14:11:22;13.60;99.90
14555;DHT22;7364;50.870;4.722;2023-03-31T14:14:01;13.60;99.90
14555;DHT22;7364;50.870;4.722;2023-03-31T14:16:31;13.70;99.90
14555;DHT22;7364;50.870;4.722;2023-03-31T14:22:08;13.50;99.90
14555;DHT22;7364;50.870;4.722;2023-03-31T14:24:43;13.40;99.90
14555;DHT22;7364;50.870;4.722;2023-03-31T14:27:23;13.30;99.90
14555;DHT22;7364;50.870;4.722;2023-03-31T14:30:01;13.10;99.90
14555;DHT22;7364;50.870;4.722;2023-03-31T14:32:39;13.10;99.90
14555;DHT22;7364;50.870;4.722;2023-03-31T14:35:25;13.00;99.90
14555;DHT22;7364;50.870;4.722;2023-03-31T14:37:55;13.00;99.90
14555;DHT22;7364;50.870;4.722;2023-03-31T14:40:23;13.00;99.90
14555;DHT22;7364;50.870;4.722;2023-03-31T14:42:53;12.90;99.90
14555;DHT22;7364;50.870;4.722;2023-03-31T14:45:23;12.90;99.90
14555;DHT22;7364;50.870;4.722;2023-03-31T14:47:56;13.10;99.90
14555;DHT22;7364;50.870;4.722;2023-03-31T14:50:28;13.20;99.90
14555;DHT22;7364;50.870;4.722;2023-03-31T14:52:57;13.10;99.90
14555;DHT22;7364;50.870;4.722;2023-03-31T14:55:28;13.30;99.90
14555;DHT22;7364;50.870;4.722;2023-03-31T14:58:00;13.20;99.90
14555;DHT22;7364;50.870;4.722;2023-03-31T15:00:31;13.30;99.90
14555;DHT22;7364;50.870;4.722;2023-03-31T15:03:01;13.40;99.90
14555;DHT22;7364;50.870;4.722;2023-03-31T15:05:33;13.50;99.90
14555;DHT22;7364;50.870;4.722;2023-03-31T15:08:02;13.20;99.90
14555;DHT22;7364;50.870;4.722;2023-03-31T15:10:34;13.10;99.90
14555;DHT22;7364;50.870;4.722;2023-03-31T15:13:09;13.00;99.90
14555;DHT22;7364;50.870;4.722;2023-03-31T15:15:37;12.90;99.90
14555;DHT22;7364;50.870;4.722;2023-03-31T15:18:08;12.90;99.90
14555;DHT22;7364;50.870;4.722;2023-03-31T15:20:38;12.70;99.90
14555;DHT22;7364;50.870;4.722;2023-03-31T15:23:19;12.70;99.90
14555;DHT22;7364;50.870;4.722;2023-03-31T15:25:52;12.50;99.90
14555;DHT22;7364;50.870;4.722;2023-03-31T15:28:25;12.50;99.90
14555;DHT22;7364;50.870;4.722;2023-03-31T15:30:54;12.30;99.90
14555;DHT22;7364;50.870;4.722;2023-03-31T15:33:30;12.30;99.90
14555;DHT22;7364;50.870;4.722;2023-03-31T15:36:01;12.20;99.90
14555;DHT22;7364;50.870;4.722;2023-03-31T15:38:29;12.20;99.90
14555;DHT22;7364;50.870;4.722;2023-03-31T15:40:58;12.30;99.90
14555;DHT22;7364;50.870;4.722;2023-03-31T15:43:29;12.50;99.90
14555;DHT22;7364;50.870;4.722;2023-03-31T15:45:58;12.60;99.90
14555;DHT22;7364;50.870;4.722;2023-03-31T15:48:29;12.60;99.90
14555;DHT22;7364;50.870;4.722;2023-03-31T15:50:59;12.30;99.90
14555;DHT22;7364;50.870;4.722;2023-03-31T15:53:30;12.30;99.90
14555;DHT22;7364;50.870;4.722;2023-03-31T15:55:58;12.30;99.90
14555;DHT22;7364;50.870;4.722;2023-03-31T15:58:55;12.30;99.90
14555;DHT22;7364;50.870;4.722;2023-03-31T16:01:28;12.40;99.90
14555;DHT22;7364;50.870;4.722;2023-03-31T16:03:58;12.40;99.90
14555;DHT22;7364;50.870;4.722;2023-03-31T16:06:33;12.50;99.90
14555;DHT22;7364;50.870;4.722;2023-03-31T16:09:04;12.60;99.90
14555;DHT22;7364;50.870;4.722;2023-03-31T16:11:37;12.70;99.90
14555;DHT22;7364;50.870;4.722;2023-03-31T16:14:11;12.80;99.90
14555;DHT22;7364;50.870;4.722;2023-03-31T16:16:47;12.80;99.90
14555;DHT22;7364;50.870;4.722;2023-03-31T16:19:15;12.80;99.90
14555;DHT22;7364;50.870;4.722;2023-03-31T16:21:46;13.00;99.90
14555;DHT22;7364;50.870;4.722;2023-03-31T16:24:18;12.90;99.90
14555;DHT22;7364;50.870;4.722;2023-03-31T16:26:47;13.10;99.90
14555;DHT22;7364;50.870;4.722;2023-03-31T16:29:21;13.10;99.90
14555;DHT22;7364;50.870;4.722;2023-03-31T16:31:49;13.00;99.90
14555;DHT22;7364;50.870;4.722;2023-03-31T16:34:31;12.80;99.90
14555;DHT22;7364;50.870;4.722;2023-03-31T16:36:59;12.70;99.90
14555;DHT22;7364;50.870;4.722;2023-03-31T16:39:34;12.80;99.90
14555;DHT22;7364;50.870;4.722;2023-03-31T16:42:01;12.60;99.90
14555;DHT22;7364;50.870;4.722;2023-03-31T16:44:30;12.50;99.90